sensor_id;sensor_type;location;lat;lon;timestamp;pressure;altitude;pressure_sealevel;temperature;humidity
46199;BME280;31928;52.104;10.030;2022-09-27T08:19:06;98454.53;;;14.08;59.70
46199;BME280;31928;52.104;10.030;2022-09-27T08:21:33;98467.00;;;14.32;57.03
46199;BME280;31928;52.104;10.030;2022-09-27T08:24:00;98458.06;;;14.03;60.05
46199;BME280;31928;52.104;10.030;2022-09-27T08:26:27;98461.38;;;14.29;56.88
46199;BME280;31928;52.104;10.030;2022-09-27T08:28:54;98462.66;;;14.03;60.29
46199;BME280;31928;52.104;10.030;2022-09-27T08:31:20;98475.31;;;13.97;60.30
46199;BME280;31928;52.104;10.030;2022-09-27T08:33:50;98470.31;;;14.24;57.75
46199;BME280;31928;52.104;10.030;2022-09-27T08:36:17;98472.91;;;13.96;59.96
46199;BME280;31928;52.104;10.030;2022-09-27T08:38:49;98486.34;;;14.01;60.05
46199;BME280;31928;52.104;10.030;2022-09-27T08:41:33;98477.72;;;13.99;60.25
46199;BME280;31928;52.104;10.030;2022-09-27T08:44:08;98487.97;;;14.02;59.86
46199;BME280;31928;52.104;10.030;2022-09-27T08:46:56;98487.41;;;14.05;60.19
46199;BME280;31928;52.104;10.030;2022-09-27T08:52:07;98488.47;;;14.09;60.15
46199;BME280;31928;52.104;10.030;2022-09-27T08:54:39;98490.88;;;14.10;60.52
46199;BME280;31928;52.104;10.030;2022-09-27T08:57:10;98485.19;;;14.17;60.08
46199;BME280;31928;52.104;10.030;2022-09-27T08:59:43;98492.75;;;14.15;60.42
46199;BME280;31928;52.104;10.030;2022-09-27T09:02:17;98497.25;;;14.24;60.14
46199;BME280;31928;52.104;10.030;2022-09-27T09:04:47;98495.66;;;14.23;60.82
46199;BME280;31928;52.104;10.030;2022-09-27T09:13:23;98491.47;;;14.41;59.00
46199;BME280;31928;52.104;10.030;2022-09-27T09:16:11;98485.50;;;14.43;58.89
46199;BME280;31928;52.104;10.030;2022-09-27T09:21:29;98508.41;;;14.46;58.92
46199;BME280;31928;52.104;10.030;2022-09-27T09:30:14;98498.78;;;14.68;57.38
46199;BME280;31928;52.104;10.030;2022-09-27T09:35:21;98509.31;;;14.65;57.94
46199;BME280;31928;52.104;10.030;2022-09-27T09:37:55;98523.06;;;14.68;58.14
46199;BME280;31928;52.104;10.030;2022-09-27T09:43:03;98501.41;;;14.73;58.15
46199;BME280;31928;52.104;10.030;2022-09-27T09:45:35;98506.78;;;14.73;57.82
46199;BME280;31928;52.104;10.030;2022-09-27T09:48:22;98516.41;;;14.84;57.40
46199;BME280;31928;52.104;10.030;2022-09-27T09:50:55;98521.56;;;14.81;58.57
46199;BME280;31928;52.104;10.030;2022-09-27T09:55:55;98521.94;;;14.98;58.16
46199;BME280;31928;52.104;10.030;2022-09-27T09:58:30;98520.50;;;15.05;57.84
46199;BME280;31928;52.104;10.030;2022-09-27T10:01:12;98517.13;;;15.18;57.21
46199;BME280;31928;52.104;10.030;2022-09-27T10:03:39;98514.44;;;15.18;57.30
46199;BME280;31928;52.104;10.030;2022-09-27T10:06:08;98516.25;;;15.27;57.33
46199;BME280;31928;52.104;10.030;2022-09-27T10:08:35;98512.91;;;15.35;56.92
46199;BME280;31928;52.104;10.030;2022-09-27T10:11:02;98512.28;;;15.43;55.98
46199;BME280;31928;52.104;10.030;2022-09-27T10:13:31;98509.75;;;15.52;55.74
46199;BME280;31928;52.104;10.030;2022-09-27T10:16:04;98517.22;;;15.60;55.35
46199;BME280;31928;52.104;10.030;2022-09-27T10:18:35;98516.63;;;15.63;55.29
46199;BME280;31928;52.104;10.030;2022-09-27T10:21:16;98509.84;;;15.65;54.60
46199;BME280;31928;52.104;10.030;2022-09-27T10:26:45;98510.88;;;15.69;54.59
46199;BME280;31928;52.104;10.030;2022-09-27T10:31:46;98511.09;;;15.72;54.91
46199;BME280;31928;52.104;10.030;2022-09-27T10:37:21;98502.69;;;15.92;54.56
46199;BME280;31928;52.104;10.030;2022-09-27T10:39:49;98516.38;;;15.82;53.48
46199;BME280;31928;52.104;10.030;2022-09-27T10:42:19;98513.16;;;15.80;52.96
46199;BME280;31928;52.104;10.030;2022-09-27T10:44:47;98516.38;;;15.82;52.62
46199;BME280;31928;52.104;10.030;2022-09-27T10:47:17;98518.97;;;15.87;53.62
46199;BME280;31928;52.104;10.030;2022-09-27T10:49:49;98518.97;;;15.87;53.54
46199;BME280;31928;52.104;10.030;2022-09-27T10:52:20;98520.59;;;15.88;51.73
46199;BME280;31928;52.104;10.030;2022-09-27T10:54:56;98524.78;;;15.99;52.38
46199;BME280;31928;52.104;10.030;2022-09-27T10:57:24;98524.25;;;15.97;52.90
46199;BME280;31928;52.104;10.030;2022-09-27T10:59:57;98515.47;;;16.05;52.36
46199;BME280;31928;52.104;10.030;2022-09-27T11:02:36;98513.72;;;16.14;53.77
46199;BME280;31928;52.104;10.030;2022-09-27T11:05:13;98529.38;;;16.17;52.61
46199;BME280;31928;52.104;10.030;2022-09-27T11:07:58;98518.41;;;16.27;52.47
46199;BME280;31928;52.104;10.030;2022-09-27T11:10:30;98523.31;;;16.25;51.36
46199;BME280;31928;52.104;10.030;2022-09-27T11:13:14;98520.09;;;16.41;52.54
46199;BME280;31928;52.104;10.030;2022-09-27T11:21:17;98503.06;;;16.73;51.17
46199;BME280;31928;52.104;10.030;2022-09-27T11:26:43;98509.22;;;16.91;50.67
46199;BME280;31928;52.104;10.030;2022-09-27T11:29:23;98521.16;;;17.04;51.17
46199;BME280;31928;52.104;10.030;2022-09-27T11:40:34;98527.56;;;17.26;47.37
46199;BME280;31928;52.104;10.030;2022-09-27T11:57:35;98543.03;;;17.21;48.36
46199;BME280;31928;52.104;10.030;2022-09-27T12:00:26;98552.16;;;17.11;48.39
46199;BME280;31928;52.104;10.030;2022-09-27T12:05:48;98557.81;;;17.15;48.22
46199;BME280;31928;52.104;10.030;2022-09-27T12:11:00;98552.03;;;16.89;47.47
46199;BME280;31928;52.104;10.030;2022-09-27T12:13:35;98554.47;;;16.73;47.66
46199;BME280;31928;52.104;10.030;2022-09-27T12:16:03;98561.25;;;16.57;48.08
46199;BME280;31928;52.104;10.030;2022-09-27T12:18:35;98557.78;;;16.51;49.00
46199;BME280;31928;52.104;10.030;2022-09-27T12:21:06;98562.06;;;16.39;49.22
46199;BME280;31928;52.104;10.030;2022-09-27T12:23:40;98558.91;;;16.32;49.21
46199;BME280;31928;52.104;10.030;2022-09-27T12:26:17;98558.97;;;16.27;50.00
46199;BME280;31928;52.104;10.030;2022-09-27T12:29:03;98559.50;;;16.29;50.83
46199;BME280;31928;52.104;10.030;2022-09-27T12:34:31;98560.75;;;16.36;52.84
46199;BME280;31928;52.104;10.030;2022-09-27T12:37:15;98569.59;;;16.42;51.93
46199;BME280;31928;52.104;10.030;2022-09-27T12:42:29;98575.03;;;16.55;50.51
46199;BME280;31928;52.104;10.030;2022-09-27T12:44:57;98581.84;;;16.53;50.30
46199;BME280;31928;52.104;10.030;2022-09-27T12:52:30;98577.78;;;16.37;47.54
46199;BME280;31928;52.104;10.030;2022-09-27T13:00:40;98587.25;;;16.16;48.50
46199;BME280;31928;52.104;10.030;2022-09-27T13:09:02;98595.47;;;15.88;49.27
46199;BME280;31928;52.104;10.030;2022-09-27T13:12:02;98599.50;;;15.90;49.69
46199;BME280;31928;52.104;10.030;2022-09-27T13:14:57;98596.03;;;15.85;49.75
46199;BME280;31928;52.104;10.030;2022-09-27T13:25:53;98597.28;;;15.92;50.56
46199;BME280;31928;52.104;10.030;2022-09-27T13:30:57;98598.97;;;16.07;50.15
46199;BME280;31928;52.104;10.030;2022-09-27T13:49:49;98597.09;;;17.12;49.24
46199;BME280;31928;52.104;10.030;2022-09-27T13:52:23;98600.66;;;16.94;48.57
46199;BME280;31928;52.104;10.030;2022-09-27T13:54:54;98598.81;;;16.90;48.71
46199;BME280;31928;52.104;10.030;2022-09-27T13:57:40;98597.94;;;16.94;49.36
46199;BME280;31928;52.104;10.030;2022-09-27T14:00:23;98602.44;;;16.85;48.83
46199;BME280;31928;52.104;10.030;2022-09-27T14:05:30;98597.47;;;16.74;49.02
46199;BME280;31928;52.104;10.030;2022-09-27T14:07:59;98603.34;;;16.63;49.38
46199;BME280;31928;52.104;10.030;2022-09-27T14:10:28;98598.31;;;16.56;49.64
46199;BME280;31928;52.104;10.030;2022-09-27T14:12:57;98605.09;;;16.54;50.36
46199;BME280;31928;52.104;10.030;2022-09-27T14:15:30;98626.25;;;16.52;50.54
46199;BME280;31928;52.104;10.030;2022-09-27T14:20:41;98644.72;;;16.45;50.66
46199;BME280;31928;52.104;10.030;2022-09-27T14:23:21;98630.25;;;16.36;50.79
46199;BME280;31928;52.104;10.030;2022-09-27T14:25:51;98625.59;;;16.18;51.18
46199;BME280;31928;52.104;10.030;2022-09-27T14:30:45;98631.56;;;15.97;51.59
46199;BME280;31928;52.104;10.030;2022-09-27T14:33:30;98626.66;;;15.99;51.83
46199;BME280;31928;52.104;10.030;2022-09-27T14:35:56;98636.41;;;15.76;52.23
46199;BME280;31928;52.104;10.030;2022-09-27T14:38:48;98632.19;;;15.65;52.42
46199;BME280;31928;52.104;10.030;2022-09-27T14:41:15;98642.00;;;15.57;52.23
46199;BME280;31928;52.104;10.030;2022-09-27T14:43:44;98634.53;;;15.49;53.09
46199;BME280;31928;52.104;10.030;2022-09-27T14:46:26;98638.84;;;15.50;52.24
46199;BME280;31928;52.104;10.030;2022-09-27T14:48:53;98640.38;;;15.32;53.20
46199;BME280;31928;52.104;10.030;2022-09-27T14:51:31;98637.41;;;15.34;53.21
46199;BME280;31928;52.104;10.030;2022-09-27T14:53:59;98648.88;;;15.21;54.23
46199;BME280;31928;52.104;10.030;2022-09-27T14:56:29;98642.38;;;15.17;54.16
46199;BME280;31928;52.104;10.030;2022-09-27T14:59:09;98642.38;;;15.17;53.38
46199;BME280;31928;52.104;10.030;2022-09-27T15:01:47;98634.34;;;15.12;54.29
46199;BME280;31928;52.104;10.030;2022-09-27T15:04:16;98632.81;;;15.01;54.60
46199;BME280;31928;52.104;10.030;2022-09-27T15:06:45;98630.97;;;14.97;54.10
46199;BME280;31928;52.104;10.030;2022-09-27T15:09:13;98636.63;;;14.95;55.47
46199;BME280;31928;52.104;10.030;2022-09-27T15:11:42;98629.94;;;14.93;55.59
46199;BME280;31928;52.104;10.030;2022-09-27T15:14:14;98633.38;;;14.98;54.66
46199;BME280;31928;52.104;10.030;2022-09-27T15:16:44;98635.84;;;14.95;55.09
46199;BME280;31928;52.104;10.030;2022-09-27T15:19:16;98635.25;;;14.98;55.02
46199;BME280;31928;52.104;10.030;2022-09-27T15:21:47;98645.31;;;14.92;55.13
46199;BME280;31928;52.104;10.030;2022-09-27T15:26:59;98636.38;;;14.97;54.66
46199;BME280;31928;52.104;10.030;2022-09-27T15:29:26;98650.13;;;14.95;55.24
46199;BME280;31928;52.104;10.030;2022-09-27T15:34:26;98640.19;;;14.91;55.72
46199;BME280;31928;52.104;10.030;2022-09-27T15:36:57;98649.66;;;14.88;55.49
46199;BME280;31928;52.104;10.030;2022-09-27T15:39:36;98640.19;;;14.91;55.04
46199;BME280;31928;52.104;10.030;2022-09-27T15:42:13;98642.16;;;14.80;56.06
46199;BME280;31928;52.104;10.030;2022-09-27T15:49:58;98669.22;;;14.70;57.30
46199;BME280;31928;52.104;10.030;2022-09-27T15:55:11;98677.31;;;14.65;56.51
46199;BME280;31928;52.104;10.030;2022-09-27T15:57:39;98677.91;;;14.62;56.21
46199;BME280;31928;52.104;10.030;2022-09-27T16:00:11;98692.72;;;14.65;55.92
46199;BME280;31928;52.104;10.030;2022-09-27T16:02:38;98697.09;;;14.56;56.28
46199;BME280;31928;52.104;10.030;2022-09-27T16:05:05;98695.75;;;14.53;54.65
46199;BME280;31928;52.104;10.030;2022-09-27T16:07:32;98686.88;;;14.48;54.81
46199;BME280;31928;52.104;10.030;2022-09-27T16:09:58;98678.06;;;14.76;53.58
46199;BME280;31928;52.104;10.030;2022-09-27T16:12:25;98679.09;;;14.42;54.77
46199;BME280;31928;52.104;10.030;2022-09-27T16:14:55;98670.53;;;14.30;55.19
46199;BME280;31928;52.104;10.030;2022-09-27T16:17:22;98668.97;;;14.24;55.48
46199;BME280;31928;52.104;10.030;2022-09-27T16:19:48;98669.25;;;14.17;55.45
46199;BME280;31928;52.104;10.030;2022-09-27T16:22:15;98662.53;;;14.10;55.73
46199;BME280;31928;52.104;10.030;2022-09-27T16:24:42;98658.75;;;14.06;56.24
46199;BME280;31928;52.104;10.030;2022-09-27T16:27:08;98666.59;;;14.02;56.10
46199;BME280;31928;52.104;10.030;2022-09-27T16:29:35;98667.16;;;13.99;56.57
46199;BME280;31928;52.104;10.030;2022-09-27T16:32:04;98665.00;;;13.96;56.26
46199;BME280;31928;52.104;10.030;2022-09-27T16:34:32;98662.06;;;13.93;56.25
46199;BME280;31928;52.104;10.030;2022-09-27T16:36:58;98667.44;;;13.93;56.54
46199;BME280;31928;52.104;10.030;2022-09-27T16:39:30;98667.97;;;13.90;56.89
46199;BME280;31928;52.104;10.030;2022-09-27T16:41:56;98667.97;;;13.90;56.45
46199;BME280;31928;52.104;10.030;2022-09-27T16:44:23;98661.00;;;13.89;57.16
46199;BME280;31928;52.104;10.030;2022-09-27T16:46:50;98657.75;;;13.87;57.03
46199;BME280;31928;52.104;10.030;2022-09-27T16:49:16;98664.66;;;14.18;54.59
46199;BME280;31928;52.104;10.030;2022-09-27T16:52:01;98659.88;;;13.90;56.90
46199;BME280;31928;52.104;10.030;2022-09-27T16:54:28;98670.16;;;13.88;56.66
46199;BME280;31928;52.104;10.030;2022-09-27T16:56:57;98658.47;;;14.17;54.87
46199;BME280;31928;52.104;10.030;2022-09-27T16:59:24;98665.56;;;13.88;56.60
46199;BME280;31928;52.104;10.030;2022-09-27T17:01:51;98662.09;;;13.83;56.66
46199;BME280;31928;52.104;10.030;2022-09-27T17:04:18;98664.25;;;13.81;56.65
46199;BME280;31928;52.104;10.030;2022-09-27T17:06:44;98664.25;;;13.81;56.45
46199;BME280;31928;52.104;10.030;2022-09-27T17:09:11;98660.38;;;14.12;54.69
46199;BME280;31928;52.104;10.030;2022-09-27T17:11:37;98659.94;;;13.85;56.80
46199;BME280;31928;52.104;10.030;2022-09-27T17:14:04;98662.09;;;13.83;57.75
46199;BME280;31928;52.104;10.030;2022-09-27T17:16:31;98663.44;;;13.80;57.78
46199;BME280;31928;52.104;10.030;2022-09-27T17:18:57;98668.72;;;14.10;55.40
46199;BME280;31928;52.104;10.030;2022-09-27T17:21:24;98663.69;;;13.84;57.68
46199;BME280;31928;52.104;10.030;2022-09-27T17:23:50;98671.22;;;13.82;57.75
46199;BME280;31928;52.104;10.030;2022-09-27T17:26:20;98669.66;;;13.81;57.73
46199;BME280;31928;52.104;10.030;2022-09-27T17:28:47;98679.59;;;13.80;57.80
46199;BME280;31928;52.104;10.030;2022-09-27T17:31:17;98680.16;;;13.82;57.62
46199;BME280;31928;52.104;10.030;2022-09-27T17:33:47;98684.19;;;13.80;57.64
46199;BME280;31928;52.104;10.030;2022-09-27T17:36:26;98684.44;;;13.83;57.25
46199;BME280;31928;52.104;10.030;2022-09-27T17:38:53;98681.78;;;13.79;57.74
46199;BME280;31928;52.104;10.030;2022-09-27T17:41:21;98677.19;;;13.79;57.17
46199;BME280;31928;52.104;10.030;2022-09-27T17:43:54;98691.44;;;13.79;57.46
46199;BME280;31928;52.104;10.030;2022-09-27T17:46:33;98684.72;;;13.77;57.44
46199;BME280;31928;52.104;10.030;2022-09-27T17:49:00;98684.75;;;13.72;57.49
46199;BME280;31928;52.104;10.030;2022-09-27T17:51:48;98694.44;;;13.73;57.83
46199;BME280;31928;52.104;10.030;2022-09-27T17:54:17;98688.81;;;13.70;57.44
46199;BME280;31928;52.104;10.030;2022-09-27T17:56:46;98689.03;;;13.68;57.55
46199;BME280;31928;52.104;10.030;2022-09-27T17:59:13;98689.31;;;13.67;57.52
46199;BME280;31928;52.104;10.030;2022-09-27T18:01:43;98688.53;;;13.66;57.79
46199;BME280;31928;52.104;10.030;2022-09-27T18:04:11;98692.28;;;13.65;58.09
46199;BME280;31928;52.104;10.030;2022-09-27T18:06:43;98700.38;;;13.70;57.90
46199;BME280;31928;52.104;10.030;2022-09-27T18:09:13;98698.50;;;13.66;58.22
46199;BME280;31928;52.104;10.030;2022-09-27T18:11:42;98691.78;;;13.63;58.29
46199;BME280;31928;52.104;10.030;2022-09-27T18:14:09;98687.97;;;13.64;58.32
46199;BME280;31928;52.104;10.030;2022-09-27T18:16:39;98686.63;;;13.67;58.29
46199;BME280;31928;52.104;10.030;2022-09-27T18:19:13;98704.41;;;13.73;57.89
46199;BME280;31928;52.104;10.030;2022-09-27T18:21:41;98694.72;;;13.67;58.20
46199;BME280;31928;52.104;10.030;2022-09-27T18:24:08;98697.13;;;13.68;58.02
46199;BME280;31928;52.104;10.030;2022-09-27T18:26:36;98695.25;;;13.69;58.00
46199;BME280;31928;52.104;10.030;2022-09-27T18:29:06;98697.66;;;13.70;57.84
46199;BME280;31928;52.104;10.030;2022-09-27T18:31:33;98699.56;;;13.70;58.21
46199;BME280;31928;52.104;10.030;2022-09-27T18:33:59;98701.63;;;14.02;55.96
46199;BME280;31928;52.104;10.030;2022-09-27T18:36:28;98699.81;;;13.73;57.84
46199;BME280;31928;52.104;10.030;2022-09-27T18:38:55;98712.09;;;14.04;55.57
46199;BME280;31928;52.104;10.030;2022-09-27T18:41:24;98712.75;;;13.76;57.43
46199;BME280;31928;52.104;10.030;2022-09-27T18:43:53;98706.53;;;13.71;57.54
46199;BME280;31928;52.104;10.030;2022-09-27T18:46:24;98701.72;;;13.68;57.63
46199;BME280;31928;52.104;10.030;2022-09-27T18:49:08;98711.69;;;13.67;57.87
46199;BME280;31928;52.104;10.030;2022-09-27T18:51:36;98704.13;;;13.64;57.75
46199;BME280;31928;52.104;10.030;2022-09-27T18:54:12;98700.38;;;13.65;57.84
46199;BME280;31928;52.104;10.030;2022-09-27T18:56:38;98702.00;;;13.61;57.74
46199;BME280;31928;52.104;10.030;2022-09-27T18:59:07;98698.75;;;13.59;58.13
46199;BME280;31928;52.104;10.030;2022-09-27T19:01:35;98696.06;;;13.59;57.72
46199;BME280;31928;52.104;10.030;2022-09-27T19:04:06;98699.31;;;13.56;58.36
46199;BME280;31928;52.104;10.030;2022-09-27T19:06:33;98704.19;;;13.54;58.13
46199;BME280;31928;52.104;10.030;2022-09-27T19:09:00;98705.25;;;13.53;58.16
46199;BME280;31928;52.104;10.030;2022-09-27T19:11:29;98709.00;;;13.52;57.83
46199;BME280;31928;52.104;10.030;2022-09-27T19:13:56;98699.31;;;13.51;57.80
46199;BME280;31928;52.104;10.030;2022-09-27T19:16:25;98696.63;;;13.51;57.70
46199;BME280;31928;52.104;10.030;2022-09-27T19:18:53;98711.44;;;13.49;57.71
46199;BME280;31928;52.104;10.030;2022-09-27T19:21:21;98708.75;;;13.49;58.08
46199;BME280;31928;52.104;10.030;2022-09-27T19:23:49;98711.72;;;13.47;58.02
46199;BME280;31928;52.104;10.030;2022-09-27T19:26:19;98711.72;;;13.47;57.94
46199;BME280;31928;52.104;10.030;2022-09-27T19:28:46;98711.72;;;13.47;58.19
46199;BME280;31928;52.104;10.030;2022-09-27T19:31:18;98707.41;;;13.51;58.24
46199;BME280;31928;52.104;10.030;2022-09-27T19:33:45;98704.69;;;13.46;58.23
46199;BME280;31928;52.104;10.030;2022-09-27T19:36:13;98701.22;;;13.46;57.99
46199;BME280;31928;52.104;10.030;2022-09-27T19:38:40;98707.66;;;13.45;58.17
46199;BME280;31928;52.104;10.030;2022-09-27T19:41:07;98699.28;;;13.76;56.29
46199;BME280;31928;52.104;10.030;2022-09-27T19:43:34;98705.81;;;13.50;57.43
46199;BME280;31928;52.104;10.030;2022-09-27T19:46:04;98704.13;;;13.79;56.07
46199;BME280;31928;52.104;10.030;2022-09-27T19:48:32;98713.06;;;13.50;57.95
46199;BME280;31928;52.104;10.030;2022-09-27T19:51:00;98711.72;;;13.47;58.09
46199;BME280;31928;52.104;10.030;2022-09-27T19:53:28;98704.41;;;13.78;56.10
46199;BME280;31928;52.104;10.030;2022-09-27T19:56:02;98703.06;;;13.55;57.87
46199;BME280;31928;52.104;10.030;2022-09-27T19:58:30;98709.00;;;13.47;58.38
46199;BME280;31928;52.104;10.030;2022-09-27T20:03:25;98710.09;;;13.46;58.51
46199;BME280;31928;52.104;10.030;2022-09-27T20:05:53;98703.63;;;13.47;58.56
46199;BME280;31928;52.104;10.030;2022-09-27T20:08:20;98703.63;;;13.47;58.38
46199;BME280;31928;52.104;10.030;2022-09-27T20:11:01;98696.34;;;13.58;57.54
46199;BME280;31928;52.104;10.030;2022-09-27T20:13:33;98702.28;;;13.50;58.25
46199;BME280;31928;52.104;10.030;2022-09-27T20:16:08;98702.81;;;13.57;58.29
46199;BME280;31928;52.104;10.030;2022-09-27T20:21:05;98699.31;;;13.51;58.48
46199;BME280;31928;52.104;10.030;2022-09-27T20:23:33;98710.63;;;13.53;58.66
46199;BME280;31928;52.104;10.030;2022-09-27T20:26:01;98709.56;;;13.54;58.82
46199;BME280;31928;52.104;10.030;2022-09-27T20:28:28;98701.50;;;13.54;58.71
46199;BME280;31928;52.104;10.030;2022-09-27T20:31:02;98704.97;;;13.60;58.44
46199;BME280;31928;52.104;10.030;2022-09-27T20:33:30;98703.06;;;13.55;58.61
46199;BME280;31928;52.104;10.030;2022-09-27T20:36:08;98705.53;;;13.57;58.60
46199;BME280;31928;52.104;10.030;2022-09-27T20:38:35;98708.47;;;13.55;58.24
46199;BME280;31928;52.104;10.030;2022-09-27T20:41:01;98701.69;;;13.87;56.38
46199;BME280;31928;52.104;10.030;2022-09-27T20:43:28;98695.00;;;13.60;58.29
46199;BME280;31928;52.104;10.030;2022-09-27T20:46:01;98702.00;;;13.61;58.14
46199;BME280;31928;52.104;10.030;2022-09-27T20:48:28;98702.81;;;13.57;59.34
46199;BME280;31928;52.104;10.030;2022-09-27T20:50:56;98699.88;;;13.58;59.74
46199;BME280;31928;52.104;10.030;2022-09-27T20:53:29;98696.06;;;13.59;62.13
46199;BME280;31928;52.104;10.030;2022-09-27T20:55:57;98702.00;;;13.61;59.56
46199;BME280;31928;52.104;10.030;2022-09-27T20:58:25;98691.50;;;13.65;61.51
46199;BME280;31928;52.104;10.030;2022-09-27T21:00:51;98701.44;;;13.69;61.50
46199;BME280;31928;52.104;10.030;2022-09-27T21:03:18;98699.75;;;14.03;58.43
46199;BME280;31928;52.104;10.030;2022-09-27T21:05:57;98706.50;;;13.90;61.45
46199;BME280;31928;52.104;10.030;2022-09-27T21:08:24;98707.31;;;13.91;61.18
46199;BME280;31928;52.104;10.030;2022-09-27T21:10:50;98709.97;;;13.96;61.83
46199;BME280;31928;52.104;10.030;2022-09-27T21:13:19;98705.13;;;14.03;61.84
46199;BME280;31928;52.104;10.030;2022-09-27T21:15:46;98705.66;;;14.10;60.05
46199;BME280;31928;52.104;10.030;2022-09-27T21:18:13;98706.16;;;14.17;60.78
46199;BME280;31928;52.104;10.030;2022-09-27T21:20:40;98710.47;;;14.23;58.54
46199;BME280;31928;52.104;10.030;2022-09-27T21:23:06;98701.28;;;14.29;60.86
46199;BME280;31928;52.104;10.030;2022-09-27T21:25:33;98694.25;;;14.33;59.66
46199;BME280;31928;52.104;10.030;2022-09-27T21:27:59;98695.69;;;14.63;57.75
46199;BME280;31928;52.104;10.030;2022-09-27T21:30:29;98707.41;;;14.44;60.18
46199;BME280;31928;52.104;10.030;2022-09-27T21:32:56;98699.56;;;14.42;58.60
46199;BME280;31928;52.104;10.030;2022-09-27T21:35:23;98700.09;;;14.44;57.35
46199;BME280;31928;52.104;10.030;2022-09-27T21:37:49;98697.41;;;14.44;59.15
46199;BME280;31928;52.104;10.030;2022-09-27T21:40:16;98695.34;;;14.75;57.32
46199;BME280;31928;52.104;10.030;2022-09-27T21:42:43;98690.91;;;14.50;59.62
46199;BME280;31928;52.104;10.030;2022-09-27T21:45:09;98687.94;;;14.52;58.79
46199;BME280;31928;52.104;10.030;2022-09-27T21:47:36;98694.22;;;14.81;57.35
46199;BME280;31928;52.104;10.030;2022-09-27T21:50:02;98688.72;;;14.57;57.01
46199;BME280;31928;52.104;10.030;2022-09-27T21:52:29;98696.78;;;14.57;57.57
46199;BME280;31928;52.104;10.030;2022-09-27T21:54:56;98694.66;;;14.59;57.57
46199;BME280;31928;52.104;10.030;2022-09-27T21:57:22;98693.03;;;14.58;58.03
46199;BME280;31928;52.104;10.030;2022-09-27T21:59:49;98699.00;;;14.89;56.50
46199;BME280;31928;52.104;10.030;2022-09-27T22:02:17;98693.50;;;14.65;58.50
46199;BME280;31928;52.104;10.030;2022-09-27T22:04:44;98695.16;;;14.61;58.97
46199;BME280;31928;52.104;10.030;2022-09-27T22:07:11;98696.50;;;14.64;56.82
46199;BME280;31928;52.104;10.030;2022-09-27T22:09:37;98691.88;;;14.64;58.42
46199;BME280;31928;52.104;10.030;2022-09-27T22:12:04;98698.91;;;14.65;58.42
46199;BME280;31928;52.104;10.030;2022-09-27T22:14:33;98692.97;;;14.68;58.39
46199;BME280;31928;52.104;10.030;2022-09-27T22:16:59;98694.56;;;14.69;57.24
46199;BME280;31928;52.104;10.030;2022-09-27T22:19:26;98696.44;;;14.74;58.27
46199;BME280;31928;52.104;10.030;2022-09-27T22:21:52;98693.44;;;14.75;57.33
46199;BME280;31928;52.104;10.030;2022-09-27T22:24:19;98692.88;;;14.78;57.65
46199;BME280;31928;52.104;10.030;2022-09-27T22:26:48;98698.53;;;14.82;57.41
46199;BME280;31928;52.104;10.030;2022-09-27T22:29:15;98688.03;;;14.80;58.00
46199;BME280;31928;52.104;10.030;2022-09-27T22:31:42;98684.25;;;14.81;58.08
46199;BME280;31928;52.104;10.030;2022-09-27T22:34:13;98687.22;;;15.13;56.56
46199;BME280;31928;52.104;10.030;2022-09-27T22:36:44;98686.88;;;14.86;55.99
46199;BME280;31928;52.104;10.030;2022-09-27T22:39:11;98677.75;;;14.82;57.41
46199;BME280;31928;52.104;10.030;2022-09-27T22:41:38;98677.53;;;14.79;56.80
46199;BME280;31928;52.104;10.030;2022-09-27T22:44:05;98669.97;;;14.76;56.15
46199;BME280;31928;52.104;10.030;2022-09-27T22:46:33;98667.06;;;14.72;55.65
46199;BME280;31928;52.104;10.030;2022-09-27T22:48:59;98671.91;;;14.70;57.42
46199;BME280;31928;52.104;10.030;2022-09-27T22:51:26;98672.47;;;14.67;56.39
46199;BME280;31928;52.104;10.030;2022-09-27T22:53:52;98671.94;;;14.65;56.96
46199;BME280;31928;52.104;10.030;2022-09-27T22:56:19;98666.59;;;14.94;56.03
46199;BME280;31928;52.104;10.030;2022-09-27T22:58:47;98663.34;;;14.63;57.80
46199;BME280;31928;52.104;10.030;2022-09-27T23:01:23;98667.06;;;14.67;56.56
46199;BME280;31928;52.104;10.030;2022-09-27T23:03:53;98663.88;;;14.60;57.13
